createdAt,value
2019-06-26T00:00:11.296Z,6.70
2019-06-26T00:02:41.896Z,7.43
2019-06-26T00:05:11.379Z,7.00
2019-06-26T00:07:40.835Z,7.23
2019-06-26T00:10:10.376Z,7.07
2019-06-26T00:12:39.742Z,7.50
2019-06-26T00:15:09.276Z,7.03
2019-06-26T00:17:38.678Z,7.20
2019-06-26T00:20:08.474Z,7.73
2019-06-26T00:22:37.775Z,7.80
2019-06-26T00:25:07.815Z,8.07
2019-06-26T00:27:37.118Z,7.77
2019-06-26T00:30:10.470Z,7.63
2019-06-26T00:32:39.950Z,8.10
2019-06-26T00:35:09.386Z,7.50
2019-06-26T00:37:38.691Z,8.47
2019-06-26T00:40:08.960Z,8.23
2019-06-26T00:42:38.251Z,8.43
2019-06-26T00:45:08.409Z,8.00
2019-06-26T00:47:37.784Z,8.00
2019-06-26T00:50:09.828Z,8.50
2019-06-26T00:52:39.125Z,7.47
2019-06-26T00:55:08.780Z,7.17
2019-06-26T00:57:38.097Z,7.33
2019-06-26T01:00:15.029Z,6.03
2019-06-26T01:02:44.460Z,6.73
2019-06-26T01:05:13.919Z,6.53
2019-06-26T01:07:43.229Z,6.73
2019-06-26T01:10:14.331Z,6.50
2019-06-26T01:12:43.635Z,6.60
2019-06-26T01:15:13.264Z,6.80
2019-06-26T01:17:42.632Z,6.60
2019-06-26T01:20:13.549Z,6.70
2019-06-26T01:22:42.939Z,6.63
2019-06-26T01:25:12.491Z,7.13
2019-06-26T01:27:41.970Z,6.30
2019-06-26T01:30:11.440Z,7.10
2019-06-26T01:32:40.731Z,6.73
2019-06-26T01:35:10.184Z,7.00
2019-06-26T01:37:39.492Z,6.53
2019-06-26T01:40:09.536Z,7.17
2019-06-26T01:42:39.212Z,6.30
2019-06-26T01:45:08.756Z,6.60
2019-06-26T01:47:38.059Z,6.77
2019-06-26T01:50:08.404Z,6.73
2019-06-26T01:52:37.711Z,6.70
2019-06-26T01:55:08.425Z,7.20
2019-06-26T01:57:37.739Z,7.47
2019-06-26T02:00:11.801Z,6.93
2019-06-26T02:02:41.681Z,6.80
2019-06-26T02:05:11.124Z,7.10
2019-06-26T02:07:40.745Z,6.97
2019-06-26T02:10:11.540Z,7.70
2019-06-26T02:12:40.935Z,7.00
2019-06-26T02:15:12.231Z,6.80
2019-06-26T02:17:41.544Z,7.70
2019-06-26T02:20:10.838Z,7.07
2019-06-26T02:22:40.154Z,7.43
2019-06-26T02:25:09.623Z,7.13
2019-06-26T02:27:38.934Z,6.97
2019-06-26T02:30:08.725Z,7.17
2019-06-26T02:32:38.067Z,7.87
2019-06-26T02:35:10.207Z,8.23
2019-06-26T02:37:39.212Z,8.07
2019-06-26T02:40:09.138Z,7.80
2019-06-26T02:42:38.616Z,8.13
2019-06-26T02:45:08.451Z,10.07
2019-06-26T02:47:38.807Z,9.60
2019-06-26T02:50:10.393Z,10.47
2019-06-26T02:52:39.779Z,9.33
2019-06-26T02:55:09.597Z,9.33
2019-06-26T02:57:38.921Z,9.47
2019-06-26T03:00:08.466Z,9.20
2019-06-26T03:02:37.912Z,9.63
2019-06-26T03:05:08.069Z,9.93
2019-06-26T03:07:37.380Z,10.40
2019-06-26T03:12:49.862Z,9.67
2019-06-26T03:15:19.267Z,9.73
2019-06-26T03:17:55.450Z,9.80
2019-06-26T03:20:22.708Z,10.00
2019-06-26T03:22:52.028Z,9.60
2019-06-26T03:25:21.336Z,9.43
2019-06-26T03:27:50.667Z,10.40
2019-06-26T03:30:20.054Z,10.47
2019-06-26T03:32:49.465Z,10.13
2019-06-26T03:35:18.832Z,9.80
2019-06-26T03:37:49.113Z,9.27
2019-06-26T03:40:18.769Z,10.40
2019-06-26T03:42:48.127Z,9.23
2019-06-26T03:45:25.716Z,9.53
2019-06-26T03:47:48.626Z,10.20
2019-06-26T03:50:18.076Z,9.47
2019-06-26T03:52:47.392Z,10.53
2019-06-26T03:55:16.897Z,10.90
2019-06-26T03:57:46.195Z,10.77
2019-06-26T04:00:18.597Z,10.77
2019-06-26T04:02:47.913Z,10.97
2019-06-26T04:05:17.805Z,10.80
2019-06-26T04:07:47.123Z,11.03
2019-06-26T04:10:17.296Z,10.80
2019-06-26T04:12:46.649Z,9.80
2019-06-26T04:15:16.668Z,10.13
2019-06-26T04:17:45.985Z,10.10
2019-06-26T04:20:15.364Z,10.60
2019-06-26T04:22:47.579Z,10.47
2019-06-26T04:25:15.849Z,10.40
2019-06-26T04:27:45.151Z,10.10
2019-06-26T04:30:15.213Z,10.17
2019-06-26T04:32:44.526Z,9.60
2019-06-26T04:35:14.065Z,9.57
2019-06-26T04:37:43.384Z,9.20
2019-06-26T04:40:13.632Z,9.63
2019-06-26T04:42:42.936Z,9.20
2019-06-26T04:45:13.079Z,9.40
2019-06-26T04:47:42.390Z,8.97
2019-06-26T04:50:12.031Z,9.37
2019-06-26T04:52:41.343Z,8.97
2019-06-26T04:55:10.986Z,8.37
2019-06-26T04:57:40.302Z,8.80
2019-06-26T05:00:10.331Z,8.27
2019-06-26T05:02:39.636Z,8.97
2019-06-26T05:05:10.654Z,8.80
2019-06-26T05:07:40.875Z,7.43
2019-06-26T05:10:11.330Z,7.80
2019-06-26T05:12:40.633Z,8.13
2019-06-26T05:15:11.495Z,7.97
2019-06-26T05:17:40.870Z,8.90
2019-06-26T05:20:10.726Z,8.77
2019-06-26T05:22:40.018Z,8.60
2019-06-26T05:25:10.547Z,8.90
2019-06-26T05:27:40.311Z,8.10
2019-06-26T05:30:11.012Z,8.37
2019-06-26T05:32:40.342Z,8.20
2019-06-26T05:35:09.879Z,8.30
2019-06-26T05:37:39.191Z,8.23
2019-06-26T05:40:14.035Z,7.63
2019-06-26T05:42:43.416Z,7.60
2019-06-26T05:45:13.656Z,8.70
2019-06-26T05:47:42.964Z,7.97
2019-06-26T05:50:13.217Z,7.53
2019-06-26T05:52:43.274Z,7.87
2019-06-26T05:55:13.739Z,7.23
2019-06-26T05:57:43.046Z,7.17
2019-06-26T06:00:13.206Z,7.37
2019-06-26T06:02:42.505Z,7.27
2019-06-26T06:05:12.049Z,7.12
2019-06-26T06:07:41.352Z,7.17
2019-06-26T06:10:11.188Z,6.65
2019-06-26T06:12:40.487Z,7.50
2019-06-26T06:15:10.544Z,7.00
2019-06-26T06:17:39.879Z,7.08
2019-06-26T06:20:09.748Z,7.08
2019-06-26T06:22:39.057Z,7.45
2019-06-26T06:25:08.724Z,7.12
2019-06-26T06:27:38.020Z,6.53
2019-06-26T06:30:07.756Z,6.92
2019-06-26T06:32:37.067Z,7.35
2019-06-26T06:35:07.605Z,7.22
2019-06-26T06:37:36.975Z,7.33
2019-06-26T06:40:07.999Z,6.83
2019-06-26T06:42:37.312Z,7.03
2019-06-26T06:45:07.859Z,7.58
2019-06-26T06:47:37.235Z,6.92
2019-06-26T06:50:07.028Z,6.92
2019-06-26T06:52:36.375Z,7.42
2019-06-26T06:55:08.421Z,6.40
2019-06-26T06:57:37.917Z,7.15
2019-06-26T07:00:07.923Z,6.12
2019-06-26T07:02:37.360Z,6.95
2019-06-26T07:05:08.364Z,6.37
2019-06-26T07:07:37.743Z,6.90
2019-06-26T07:10:07.397Z,6.60
2019-06-26T07:12:38.504Z,7.28
2019-06-26T07:15:09.883Z,7.00
2019-06-26T07:17:39.191Z,7.25
2019-06-26T07:20:09.087Z,7.20
2019-06-26T07:22:38.578Z,7.05
2019-06-26T07:25:08.009Z,7.03
2019-06-26T07:27:37.314Z,7.00
2019-06-26T07:30:08.358Z,6.75
2019-06-26T07:32:37.667Z,7.03
2019-06-26T07:35:07.852Z,7.42
2019-06-26T07:37:37.165Z,7.00
2019-06-26T07:40:07.443Z,6.97
2019-06-26T07:42:37.763Z,6.80
2019-06-26T07:45:07.695Z,7.20
2019-06-26T07:47:43.361Z,8.48
2019-06-26T07:50:08.494Z,7.20
2019-06-26T07:52:37.800Z,6.20
2019-06-26T07:55:11.641Z,7.70
2019-06-26T07:57:39.147Z,7.35
2019-06-26T08:00:08.913Z,7.55
2019-06-26T08:02:38.294Z,7.35
2019-06-26T08:05:09.408Z,6.97
2019-06-26T08:07:38.703Z,6.83
2019-06-26T08:10:08.639Z,7.42
2019-06-26T08:12:37.943Z,7.50
2019-06-26T08:15:08.043Z,7.53
2019-06-26T08:17:37.416Z,6.75
2019-06-26T08:20:06.973Z,7.55
2019-06-26T08:22:36.315Z,7.45
2019-06-26T08:25:07.012Z,7.08
2019-06-26T08:27:36.384Z,6.70
2019-06-26T08:30:09.403Z,6.45
2019-06-26T08:32:38.799Z,6.55
2019-06-26T08:35:08.453Z,7.25
2019-06-26T08:37:37.760Z,6.53
2019-06-26T08:40:08.804Z,6.75
2019-06-26T08:42:38.107Z,6.53
2019-06-26T08:45:08.398Z,6.65
2019-06-26T08:47:37.787Z,6.95
2019-06-26T08:50:07.936Z,8.35
2019-06-26T08:52:37.479Z,7.50
2019-06-26T08:55:11.108Z,7.22
2019-06-26T08:57:40.452Z,7.40
2019-06-26T09:00:10.863Z,7.87
2019-06-26T09:02:41.146Z,7.62
2019-06-26T09:05:10.779Z,7.08
2019-06-26T09:07:40.091Z,6.67
2019-06-26T09:10:09.736Z,6.70
2019-06-26T09:12:39.048Z,6.67
2019-06-26T09:15:09.224Z,6.53
2019-06-26T09:17:38.543Z,7.80
2019-06-26T09:20:09.384Z,7.37
2019-06-26T09:22:38.728Z,6.92
2019-06-26T09:25:21.083Z,6.58
2019-06-26T09:27:39.963Z,7.40
2019-06-26T09:30:09.915Z,7.10
2019-06-26T09:32:39.211Z,6.90
2019-06-26T09:35:08.757Z,7.42
2019-06-26T09:37:39.044Z,7.55
2019-06-26T09:40:08.687Z,7.03
2019-06-26T09:42:37.987Z,8.03
2019-06-26T09:45:07.638Z,8.05
2019-06-26T09:47:36.934Z,7.95
2019-06-26T09:50:07.101Z,7.80
2019-06-26T09:52:36.466Z,7.85
2019-06-26T09:55:06.335Z,8.60
2019-06-26T09:57:35.646Z,7.92
2019-06-26T10:00:10.564Z,8.43
2019-06-26T10:02:40.052Z,8.45
2019-06-26T10:05:09.514Z,8.25
2019-06-26T10:07:38.803Z,7.92
2019-06-26T10:10:09.568Z,8.05
2019-06-26T10:12:38.949Z,8.00
2019-06-26T10:15:09.589Z,8.80
2019-06-26T10:17:38.976Z,8.93
2019-06-26T10:20:09.612Z,7.90
2019-06-26T10:22:38.919Z,8.20
2019-06-26T10:25:11.219Z,7.58
2019-06-26T10:27:39.641Z,7.80
2019-06-26T10:30:10.495Z,8.28
2019-06-26T10:32:39.800Z,7.28
2019-06-26T10:35:09.962Z,8.75
2019-06-26T10:37:39.265Z,8.00
2019-06-26T10:40:09.448Z,8.00
2019-06-26T10:42:38.829Z,8.10
2019-06-26T10:45:09.289Z,7.50
2019-06-26T10:47:39.781Z,7.78
2019-06-26T10:50:09.727Z,7.05
2019-06-26T10:52:39.031Z,7.53
2019-06-26T10:55:08.787Z,7.30
2019-06-26T10:57:38.084Z,6.53
2019-06-26T11:00:09.633Z,7.00
2019-06-26T11:02:39.212Z,6.55
2019-06-26T11:05:10.448Z,6.95
2019-06-26T11:07:39.818Z,7.53
2019-06-26T11:10:09.379Z,6.72
2019-06-26T11:12:38.688Z,7.03
2019-06-26T11:15:08.520Z,6.85
2019-06-26T11:17:37.965Z,7.42
2019-06-26T11:20:08.399Z,7.25
2019-06-26T11:22:37.839Z,7.08
2019-06-26T11:25:08.069Z,7.25
2019-06-26T11:27:37.402Z,7.30
2019-06-26T11:30:08.344Z,6.95
2019-06-26T11:32:37.668Z,6.72
2019-06-26T11:35:08.676Z,6.70
2019-06-26T11:37:38.119Z,6.20
2019-06-26T11:40:08.073Z,6.55
2019-06-26T11:42:37.441Z,6.83
2019-06-26T11:45:08.067Z,7.33
2019-06-26T11:47:37.651Z,6.50
2019-06-26T11:50:12.809Z,7.00
2019-06-26T11:52:42.177Z,6.90
2019-06-26T11:55:12.030Z,6.75
2019-06-26T11:57:41.409Z,7.10
2019-06-26T12:00:14.195Z,7.25
2019-06-26T12:02:43.496Z,6.70
2019-06-26T12:05:13.351Z,7.08
2019-06-26T12:07:42.730Z,6.40
2019-06-26T12:10:12.628Z,6.83
2019-06-26T12:12:42.156Z,6.62
2019-06-26T12:15:13.204Z,6.80
2019-06-26T12:17:43.273Z,6.25
2019-06-26T12:20:19.316Z,6.30
2019-06-26T12:22:43.921Z,6.42
2019-06-26T12:25:14.789Z,6.95
2019-06-26T12:27:44.124Z,6.65
2019-06-26T12:30:13.759Z,6.37
2019-06-26T12:33:01.048Z,6.67
2019-06-26T12:35:14.713Z,6.25
2019-06-26T12:37:44.094Z,6.92
2019-06-26T12:40:15.837Z,6.65
2019-06-26T12:42:46.113Z,6.50
2019-06-26T12:45:15.499Z,6.95
2019-06-26T12:47:44.881Z,8.13
2019-06-26T12:50:15.023Z,7.20
2019-06-26T12:52:44.332Z,11.70
2019-06-26T12:55:13.886Z,8.25
2019-06-26T12:57:43.187Z,6.53
2019-06-26T13:00:12.633Z,7.58
2019-06-26T13:02:41.944Z,7.50
2019-06-26T13:05:12.203Z,8.78
2019-06-26T13:07:41.571Z,8.18
2019-06-26T13:10:12.812Z,6.75
2019-06-26T13:12:45.639Z,7.20
2019-06-26T13:15:14.760Z,8.33
2019-06-26T13:17:44.073Z,7.50
2019-06-26T13:20:14.198Z,8.68
2019-06-26T13:22:43.616Z,7.10
2019-06-26T13:25:15.960Z,6.95
2019-06-26T13:27:45.006Z,6.45
2019-06-26T13:30:17.519Z,6.87
2019-06-26T13:32:46.864Z,6.67
2019-06-26T13:35:16.167Z,7.22
2019-06-26T13:37:45.476Z,6.92
2019-06-26T13:40:14.848Z,6.20
2019-06-26T13:42:44.220Z,6.87
2019-06-26T13:45:13.532Z,7.17
2019-06-26T13:47:42.835Z,7.42
2019-06-26T13:50:12.379Z,6.55
2019-06-26T13:52:41.687Z,6.53
2019-06-26T13:55:11.337Z,7.00
2019-06-26T13:57:40.654Z,7.05
2019-06-26T14:00:10.592Z,6.92
2019-06-26T14:02:39.900Z,7.17
2019-06-26T14:05:09.351Z,7.22
2019-06-26T14:07:39.735Z,6.67
2019-06-26T14:10:09.731Z,6.90
2019-06-26T14:12:39.058Z,7.03
2019-06-26T14:15:09.503Z,7.10
2019-06-26T14:17:38.825Z,6.72
2019-06-26T14:20:08.669Z,7.70
2019-06-26T14:22:39.119Z,6.78
2019-06-26T14:25:08.974Z,6.87
2019-06-26T14:27:38.321Z,7.03
2019-06-26T14:30:08.346Z,7.35
2019-06-26T14:32:37.655Z,7.40
2019-06-26T14:35:08.017Z,7.30
2019-06-26T14:37:37.331Z,6.75
2019-06-26T14:40:09.526Z,7.33
2019-06-26T14:42:38.831Z,7.37
2019-06-26T14:45:08.378Z,10.58
2019-06-26T14:47:37.683Z,7.22
2019-06-26T14:50:07.636Z,7.37
2019-06-26T14:52:36.936Z,7.47
2019-06-26T14:55:07.083Z,7.28
2019-06-26T14:57:36.567Z,8.08
2019-06-26T15:00:07.891Z,8.05
2019-06-26T15:02:37.199Z,7.30
2019-06-26T15:05:06.867Z,7.37
2019-06-26T15:07:36.355Z,7.62
2019-06-26T15:10:07.417Z,7.45
2019-06-26T15:12:36.805Z,8.43
2019-06-26T15:15:06.915Z,8.95
2019-06-26T15:17:36.238Z,8.40
2019-06-26T15:20:07.397Z,7.85
2019-06-26T15:22:36.709Z,8.05
2019-06-26T15:25:07.667Z,7.70
2019-06-26T15:27:36.966Z,7.92
2019-06-26T15:30:08.221Z,7.70
2019-06-26T15:32:37.637Z,8.05
2019-06-26T15:35:07.891Z,8.10
2019-06-26T15:37:37.328Z,8.03
2019-06-26T15:40:07.604Z,8.33
2019-06-26T15:42:36.936Z,7.87
2019-06-26T15:45:07.583Z,8.40
2019-06-26T15:47:36.894Z,8.05
2019-06-26T15:50:10.633Z,8.75
2019-06-26T15:52:38.570Z,8.30
2019-06-26T15:55:09.317Z,8.35
2019-06-26T15:57:38.632Z,8.45
2019-06-26T16:00:08.707Z,7.47
2019-06-26T16:02:38.324Z,8.55
2019-06-26T16:05:07.971Z,8.98
2019-06-26T16:07:37.848Z,9.05
2019-06-26T16:10:08.013Z,9.20
2019-06-26T16:12:38.306Z,8.48
2019-06-26T16:15:08.041Z,9.05
2019-06-26T16:17:55.152Z,8.93
2019-06-26T16:20:24.481Z,9.08
2019-06-26T16:22:53.792Z,8.15
2019-06-26T16:25:23.886Z,9.05
2019-06-26T16:28:04.674Z,8.60
2019-06-26T16:30:24.210Z,8.80
2019-06-26T16:32:56.660Z,9.23
2019-06-26T16:35:24.803Z,9.13
2019-06-26T16:37:54.123Z,9.60
2019-06-26T16:40:23.435Z,8.68
2019-06-26T16:42:52.758Z,8.85
2019-06-26T16:45:22.064Z,9.25
2019-06-26T16:47:51.455Z,9.63
2019-06-26T16:50:20.875Z,9.80
2019-06-26T16:52:50.402Z,9.18
2019-06-26T16:55:19.727Z,9.63
2019-06-26T16:57:49.044Z,10.18
2019-06-26T17:00:18.927Z,9.23
2019-06-26T17:02:48.295Z,11.40
2019-06-26T17:05:17.683Z,9.35
2019-06-26T17:07:47.009Z,9.90
2019-06-26T17:10:18.000Z,8.55
2019-06-26T17:12:47.345Z,10.08
2019-06-26T17:15:16.960Z,9.68
2019-06-26T17:17:46.280Z,10.35
2019-06-26T17:20:15.841Z,9.08
2019-06-26T17:22:45.158Z,10.18
2019-06-26T17:25:14.812Z,9.58
2019-06-26T17:27:44.690Z,9.60
2019-06-26T17:30:14.349Z,9.75
2019-06-26T17:32:43.662Z,11.03
2019-06-26T17:35:13.344Z,9.93
2019-06-26T17:37:42.660Z,8.00
2019-06-26T17:40:12.385Z,9.43
2019-06-26T17:42:41.693Z,8.60
2019-06-26T17:45:11.363Z,8.38
2019-06-26T17:47:40.682Z,8.90
2019-06-26T17:50:10.228Z,8.88
2019-06-26T17:52:39.545Z,8.55
2019-06-26T17:55:09.199Z,9.13
2019-06-26T17:57:38.519Z,9.03
2019-06-26T18:00:10.555Z,8.93
2019-06-26T18:02:40.005Z,9.35
2019-06-26T18:05:09.808Z,8.93
2019-06-26T18:07:39.119Z,8.73
2019-06-26T18:10:08.569Z,9.03
2019-06-26T18:12:37.880Z,8.50
2019-06-26T18:15:07.732Z,8.23
2019-06-26T18:17:37.043Z,9.23
2019-06-26T18:20:09.472Z,9.53
2019-06-26T18:22:38.798Z,8.98
2019-06-26T18:25:08.356Z,9.13
2019-06-26T18:27:37.664Z,9.50
2019-06-26T18:30:09.100Z,9.78
2019-06-26T18:32:38.419Z,19.35
2019-06-26T18:35:08.567Z,10.45
2019-06-26T18:37:37.918Z,11.18
2019-06-26T18:40:07.673Z,10.55
2019-06-26T18:42:37.146Z,17.67
2019-06-26T18:45:08.358Z,8.58
2019-06-26T18:47:37.676Z,12.25
2019-06-26T18:50:07.641Z,9.90
2019-06-26T18:52:37.008Z,9.18
2019-06-26T18:55:07.956Z,11.83
2019-06-26T18:57:38.352Z,9.00
2019-06-26T19:00:08.905Z,9.68
2019-06-26T19:02:38.274Z,9.78
2019-06-26T19:05:09.844Z,9.53
2019-06-26T19:07:39.170Z,10.13
2019-06-26T19:10:09.823Z,9.55
2019-06-26T19:12:39.200Z,9.53
2019-06-26T19:15:08.859Z,10.23
2019-06-26T19:17:38.201Z,10.82
2019-06-26T19:20:08.071Z,10.85
2019-06-26T19:22:37.711Z,10.95
2019-06-26T19:25:07.871Z,10.93
2019-06-26T19:27:37.187Z,11.38
2019-06-26T19:30:09.069Z,11.65
2019-06-26T19:32:38.523Z,11.33
2019-06-26T19:35:18.371Z,12.93
2019-06-26T19:37:39.741Z,12.00
2019-06-26T19:40:09.319Z,11.63
2019-06-26T19:42:38.672Z,11.80
2019-06-26T19:45:11.040Z,12.10
2019-06-26T19:47:40.417Z,11.05
2019-06-26T19:50:10.168Z,11.60
2019-06-26T19:52:39.488Z,12.07
2019-06-26T19:55:09.852Z,11.65
2019-06-26T19:57:39.169Z,13.30
2019-06-26T20:00:10.893Z,13.08
2019-06-26T20:02:40.211Z,13.70
2019-06-26T20:05:09.896Z,12.58
2019-06-26T20:07:39.225Z,12.55
2019-06-26T20:10:09.301Z,12.50
2019-06-26T20:12:38.680Z,13.33
2019-06-26T20:15:08.535Z,12.97
2019-06-26T20:17:37.855Z,11.93
2019-06-26T20:20:08.108Z,12.70
2019-06-26T20:22:37.511Z,11.63
2019-06-26T20:25:08.260Z,12.10
2019-06-26T20:27:37.585Z,11.85
2019-06-26T20:30:09.709Z,11.87
2019-06-26T20:32:38.944Z,11.73
2019-06-26T20:35:08.404Z,11.88
2019-06-26T20:37:37.731Z,11.07
2019-06-26T20:40:08.039Z,11.90
2019-06-26T20:42:37.352Z,12.47
2019-06-26T20:45:08.576Z,12.33
2019-06-26T20:47:38.864Z,11.33
2019-06-26T20:50:09.123Z,11.33
2019-06-26T20:52:38.444Z,11.30
2019-06-26T20:55:08.097Z,10.60
2019-06-26T20:57:37.420Z,10.90
2019-06-26T21:00:07.871Z,10.23
2019-06-26T21:02:37.882Z,10.30
2019-06-26T21:05:07.647Z,10.53
2019-06-26T21:07:36.951Z,10.33
2019-06-26T21:10:06.564Z,10.23
2019-06-26T21:12:35.886Z,10.00
2019-06-26T21:15:07.050Z,10.37
2019-06-26T21:17:36.615Z,9.83
2019-06-26T21:20:07.732Z,9.80
2019-06-26T21:22:37.049Z,10.03
2019-06-26T21:25:18.487Z,11.17
2019-06-26T21:27:40.010Z,10.50
2019-06-26T21:30:09.773Z,10.53
2019-06-26T21:32:40.345Z,10.70
2019-06-26T21:35:09.793Z,10.47
2019-06-26T21:37:39.167Z,10.63
2019-06-26T21:40:08.919Z,10.93
2019-06-26T21:42:38.276Z,10.50
2019-06-26T21:45:09.406Z,10.77
2019-06-26T21:47:38.744Z,11.13
2019-06-26T21:50:08.575Z,10.40
2019-06-26T21:52:37.893Z,10.27
2019-06-26T21:55:07.651Z,10.13
2019-06-26T21:57:54.785Z,10.00
2019-06-26T22:00:42.203Z,10.63
2019-06-26T22:03:29.815Z,10.67
2019-06-26T22:06:17.244Z,11.10
2019-06-26T22:08:50.852Z,11.00
2019-06-26T22:11:21.793Z,11.17
2019-06-26T22:13:51.188Z,11.30
2019-06-26T22:16:20.682Z,10.90
2019-06-26T22:18:50.089Z,11.60
2019-06-26T22:21:19.404Z,11.33
2019-06-26T22:23:48.723Z,11.20
2019-06-26T22:26:18.100Z,11.20
2019-06-26T22:28:47.442Z,11.30
2019-06-26T22:31:16.900Z,10.73
2019-06-26T22:33:46.868Z,11.17
2019-06-26T22:36:16.200Z,12.30
2019-06-26T22:38:45.512Z,10.97
2019-06-26T22:41:14.848Z,11.90
2019-06-26T22:43:44.173Z,11.30
2019-06-26T22:46:13.575Z,10.80
2019-06-26T22:48:42.904Z,11.87
2019-06-26T22:51:12.294Z,11.23
2019-06-26T22:53:41.598Z,11.87
2019-06-26T22:56:10.921Z,11.07
2019-06-26T22:58:40.499Z,12.07
2019-06-26T23:01:09.882Z,12.10
2019-06-26T23:03:39.202Z,11.00
2019-06-26T23:06:08.515Z,12.57
2019-06-26T23:08:37.909Z,11.73
2019-06-26T23:11:07.232Z,11.70
2019-06-26T23:13:36.552Z,12.30
2019-06-26T23:16:05.878Z,12.43
2019-06-26T23:18:35.193Z,11.73
2019-06-26T23:21:04.518Z,12.60
2019-06-26T23:23:33.902Z,12.23
2019-06-26T23:26:03.227Z,12.03
2019-06-26T23:28:32.552Z,12.23
2019-06-26T23:31:01.872Z,12.83
2019-06-26T23:33:31.186Z,12.10
2019-06-26T23:36:00.722Z,12.83
2019-06-26T23:38:30.052Z,13.27
2019-06-26T23:40:59.368Z,12.80
2019-06-26T23:43:28.734Z,12.00
2019-06-26T23:45:58.116Z,11.90
2019-06-26T23:48:27.436Z,12.13
2019-06-26T23:50:56.756Z,12.43
2019-06-26T23:53:26.080Z,11.87
2019-06-26T23:55:55.401Z,11.87
2019-06-26T23:58:25.286Z,12.43
